.
WxDataArchive / Data Records for 2008-07-05
2008-07-04 July 2008 2008-07-06

Data Records for Saturday, 05 July 2008

Time	Temp	Chill	HIndex	Humid	Dewpt	 Wind 	HiWind	WindDir	Rain 	Barom 
-----	----	-----	------	-----	-----	------	------	-------	-----	----- 
00:00	60.1	60.1	60.1	83	54.9	0	0	---	0.00	29.994 
00:05	59.8	59.8	59.8	84	55.0	0	0	---	0.00	29.992 
00:10	59.5	59.5	59.5	84	54.7	0	0	---	0.00	29.991 
00:15	59.3	59.3	59.3	85	54.8	0	0	---	0.00	29.993 
00:20	59.0	59.0	59.0	85	54.5	0	0	---	0.00	29.993 
00:25	58.9	58.9	58.9	85	54.4	0	0	---	0.00	29.993 
00:30	58.7	58.7	58.7	86	54.5	0	0	---	0.00	29.994 
00:35	58.6	58.6	58.6	86	54.4	0	0	---	0.00	29.993 
00:40	58.3	58.3	58.3	86	54.1	0	0	---	0.00	29.992 
00:45	58.1	58.1	58.1	86	53.9	0	0	---	0.00	29.992 
00:50	58.0	58.0	58.0	86	53.8	0	0	---	0.00	29.992 
00:55	57.8	57.8	57.8	85	53.3	0	0	---	0.00	29.992 
01:00	57.6	57.6	57.6	86	53.4	0	0	---	0.00	29.992 
01:05	57.5	57.5	57.5	86	53.3	0	0	---	0.00	29.992 
01:10	57.3	57.3	57.3	85	52.8	0	0	---	0.00	29.992 
01:15	57.2	57.2	57.2	86	53.0	0	0	---	0.00	29.992 
01:20	57.2	57.2	57.2	86	53.0	0	0	---	0.00	29.992 
01:25	57.0	57.0	57.0	86	52.9	0	0	---	0.00	29.992 
01:30	56.9	56.9	56.9	86	52.8	0	0	---	0.00	29.992 
01:35	56.7	56.7	56.7	86	52.6	0	0	---	0.00	29.993 
01:40	56.6	56.6	56.6	86	52.5	0	0	---	0.00	29.992 
01:45	56.5	56.5	56.5	86	52.4	0	0	---	0.00	29.992 
01:50	56.6	56.6	56.6	86	52.5	0	1	90	0.00	29.991 
01:55	56.6	56.6	56.6	86	52.5	0	0	---	0.00	29.990 
02:00	56.6	56.6	56.6	86	52.5	0	0	---	0.00	29.990 
02:05	56.6	56.6	56.6	86	52.5	0	1	90	0.00	29.989 
02:10	56.6	56.6	56.6	86	52.5	0	0	---	0.00	29.989 
02:15	56.5	56.5	56.5	86	52.4	0	0	---	0.00	29.986 
02:20	56.5	56.5	56.5	86	52.4	0	0	---	0.00	29.983 
02:25	56.5	56.5	56.5	86	52.4	0	0	---	0.00	29.982 
02:30	56.3	56.3	56.3	86	52.2	0	0	---	0.00	29.982 
02:35	56.3	56.3	56.3	86	52.2	0	0	---	0.00	29.982 
02:40	56.2	56.2	56.2	87	52.4	0	0	---	0.00	29.981 
02:45	56.0	56.0	56.0	87	52.2	0	0	---	0.00	29.980 
02:50	55.9	55.9	55.9	87	52.1	0	0	---	0.00	29.979 
02:55	55.7	55.7	55.7	88	52.2	0	0	---	0.00	29.979 
03:00	55.7	55.7	55.7	88	52.2	0	0	---	0.00	29.980 
03:05	55.7	55.7	55.7	88	52.2	0	0	---	0.00	29.979 
03:10	55.7	55.7	55.7	88	52.2	0	0	---	0.00	29.978 
03:15	55.6	55.6	55.6	88	52.1	0	0	---	0.00	29.978 
03:20	55.4	55.4	55.4	88	51.9	0	0	---	0.00	29.978 
03:25	55.3	55.3	55.3	89	52.1	0	0	---	0.00	29.979 
03:30	55.3	55.3	55.3	89	52.1	0	0	---	0.00	29.978 
03:35	55.1	55.1	55.1	89	51.9	0	0	---	0.00	29.978 
03:40	55.0	55.0	55.0	90	52.1	0	0	---	0.00	29.979 
03:45	55.0	55.0	55.0	90	52.1	0	0	---	0.00	29.979 
03:50	54.8	54.8	54.8	90	51.9	0	0	---	0.00	29.979 
03:55	54.8	54.8	54.8	91	52.2	0	0	---	0.00	29.979 
04:00	54.7	54.7	54.7	91	52.1	0	0	---	0.00	29.979 
04:05	54.5	54.5	54.5	91	51.9	0	0	---	0.00	29.979 
04:10	54.4	54.4	54.4	91	51.8	0	0	---	0.00	29.981 
04:15	54.2	54.2	54.2	91	51.6	0	0	---	0.00	29.982 
04:20	54.1	54.1	54.1	91	51.5	0	0	---	0.00	29.983 
04:25	53.9	53.9	53.9	92	51.6	0	0	---	0.00	29.982 
04:30	53.8	53.8	53.8	92	51.5	0	0	---	0.00	29.984 
04:35	53.8	53.8	53.8	92	51.5	0	0	---	0.00	29.984 
04:40	53.6	53.6	53.6	92	51.3	0	0	---	0.00	29.985 
04:45	53.5	53.5	53.5	92	51.2	0	0	---	0.00	29.986 
04:50	53.5	53.5	53.5	92	51.2	0	0	---	0.00	29.991 
04:55	53.5	53.5	53.5	93	51.5	0	0	---	0.00	29.990 
05:00	53.6	53.6	53.6	93	51.6	0	0	---	0.00	29.991 
05:05	53.6	53.6	53.6	93	51.6	0	0	---	0.00	29.992 
05:10	53.8	53.8	53.8	94	52.1	0	0	---	0.00	29.994 
05:15	53.8	53.8	53.8	94	52.1	0	0	---	0.00	29.995 
05:20	53.6	53.6	53.6	94	51.9	0	0	---	0.00	29.995 
05:25	53.6	53.6	53.6	94	51.9	0	0	---	0.00	29.995 
05:30	53.8	53.8	53.8	94	52.1	0	0	---	0.00	29.996 
05:35	53.8	53.8	53.8	94	52.1	0	0	---	0.00	29.996 
05:40	53.9	53.9	53.9	95	52.5	0	0	---	0.00	29.995 
05:45	54.1	54.1	54.1	95	52.7	0	0	---	0.00	29.994 
05:50	54.4	54.4	54.4	95	53.0	0	0	---	0.00	29.994 
05:55	54.7	54.7	54.7	95	53.3	0	0	---	0.00	29.994 
06:00	55.0	55.0	55.0	95	53.6	0	1	90	0.00	29.995 
06:05	55.4	55.4	55.4	95	54.0	0	0	---	0.00	29.998 
06:10	55.7	55.7	55.7	95	54.3	0	0	---	0.00	29.999 
06:15	55.9	55.9	55.9	96	54.8	0	1	90	0.00	30.002 
06:20	56.3	56.3	56.3	95	54.9	0	1	90	0.00	30.005 
06:25	56.7	56.7	56.7	95	55.3	0	2	90	0.00	30.005 
06:30	57.3	57.3	57.3	95	55.9	0	1	90	0.00	30.001 
06:35	58.0	58.0	58.0	93	56.0	0	1	90	0.00	30.003 
06:40	59.0	59.0	59.0	90	56.1	0	1	90	0.00	30.004 
06:45	59.9	59.9	59.9	88	56.3	0	1	90	0.00	30.000 
06:50	60.7	60.7	60.7	84	55.8	0	1	90	0.00	30.000 
06:55	61.5	61.5	61.5	82	55.9	0	2	90	0.00	30.004 
07:00	62.4	62.4	62.4	81	56.5	0	1	90	0.00	30.005 
07:05	62.7	62.7	62.7	79	56.1	0	2	90	0.00	30.008 
07:10	63.2	63.2	63.2	77	55.9	1	3	90	0.00	30.009 
07:15	63.5	63.5	63.5	77	56.2	1	3	90	0.00	30.007 
07:20	64.0	64.0	64.0	76	56.3	1	4	90	0.00	30.008 
07:25	64.5	64.5	64.5	76	56.8	1	4	112	0.00	30.009 
07:30	65.0	65.0	65.0	73	56.1	1	3	112	0.00	30.011 
07:35	65.3	65.3	65.3	73	56.4	1	3	112	0.00	30.014 
07:40	65.8	65.8	65.8	73	56.9	1	3	112	0.00	30.014 
07:45	66.1	66.1	66.1	71	56.4	1	4	112	0.00	30.013 
07:50	66.4	66.4	66.4	72	57.1	0	2	112	0.00	30.015 
07:55	66.9	66.9	66.9	72	57.6	1	4	112	0.00	30.018 
08:00	67.3	67.3	67.3	70	57.2	1	3	135	0.00	30.018 
08:05	67.8	67.8	67.8	70	57.6	1	7	135	0.00	30.021 
08:10	67.9	67.9	67.9	68	56.9	1	5	112	0.00	30.022 
08:15	67.9	67.9	67.9	68	56.9	3	6	112	0.00	30.021 
08:20	67.8	67.8	67.8	68	56.8	2	6	112	0.00	30.021 
08:25	68.3	68.3	68.3	66	56.5	1	5	112	0.00	30.020 
08:30	68.4	68.4	68.4	65	56.2	2	5	90	0.00	30.020 
08:35	68.8	68.8	68.8	67	57.4	1	4	112	0.00	30.017 
08:40	68.8	68.8	68.8	65	56.5	3	7	90	0.00	30.016 
08:45	68.6	68.6	68.6	64	55.9	3	6	90	0.00	30.015 
08:50	68.8	68.8	68.8	64	56.1	2	6	112	0.00	30.017 
08:55	68.9	68.9	68.9	64	56.2	3	10	112	0.00	30.017 
09:00	69.3	69.3	69.3	64	56.6	2	5	112	0.00	30.017 
09:05	69.9	69.9	69.9	62	56.3	2	5	90	0.00	30.019 
09:10	70.4	70.4	70.4	62	56.7	2	7	112	0.00	30.018 
09:15	70.8	70.8	70.8	59	55.7	2	6	90	0.00	30.018 
09:20	70.8	70.8	70.8	58	55.3	2	7	112	0.00	30.019 
09:25	70.9	70.9	70.9	57	54.9	2	7	90	0.00	30.019 
09:30	71.1	71.1	71.1	57	55.1	3	5	112	0.00	30.019 
09:35	71.1	71.1	71.1	55	54.1	3	6	112	0.00	30.018 
09:40	71.5	71.5	71.5	53	53.5	2	7	112	0.00	30.018 
09:45	71.6	71.6	71.6	54	54.1	3	6	90	0.00	30.020 
09:50	72.0	72.0	72.0	56	55.4	1	5	112	0.00	30.019 
09:55	72.3	72.3	72.3	51	53.1	3	7	90	0.00	30.019 
10:00	72.1	72.1	72.1	51	53.0	3	7	112	0.00	30.017 
10:05	72.5	72.5	72.5	47	51.1	3	10	90	0.00	30.017 
10:10	72.7	72.7	72.7	49	52.4	3	6	112	0.00	30.016 
10:15	72.7	72.7	72.7	49	52.4	3	7	112	0.00	30.014 
10:20	72.7	72.7	72.7	47	51.3	3	6	90	0.00	30.016 
10:25	73.2	73.2	73.2	46	51.2	2	6	90	0.00	30.014 
10:30	73.7	73.7	73.7	49	53.3	1	4	90	0.00	30.015 
10:35	74.0	74.0	74.0	45	51.3	2	7	112	0.00	30.018 
10:40	74.0	74.0	74.0	48	53.0	2	7	112	0.00	30.016 
10:45	74.4	74.4	74.4	49	54.0	2	6	90	0.00	30.019 
10:50	74.6	74.6	74.6	46	52.4	2	6	90	0.00	30.017 
10:55	74.6	74.6	74.6	49	54.2	2	5	112	0.00	30.018 
11:00	74.9	74.9	74.9	46	52.7	1	4	90	0.00	30.016 
11:05	75.3	75.3	77.7	45	52.5	2	5	112	0.00	30.016 
11:10	75.4	75.4	77.8	47	53.7	2	4	90	0.00	30.016 
11:15	75.4	75.4	77.8	47	53.7	2	4	90	0.00	30.014 
11:20	75.3	75.3	77.7	45	52.5	2	5	112	0.00	30.013 
11:25	75.1	75.1	77.6	45	52.3	2	4	112	0.00	30.013 
11:30	75.4	75.4	77.8	51	56.0	1	4	225	0.00	30.009 
11:35	76.0	76.0	78.0	46	53.7	2	5	112	0.00	30.007 
11:40	76.0	76.0	78.0	48	54.9	1	6	90	0.00	30.007 
11:45	75.8	75.8	77.8	43	51.7	2	4	90	0.00	30.006 
11:50	75.8	75.8	78.0	50	55.8	1	3	90	0.00	30.005 
11:55	75.8	75.8	77.9	46	53.5	1	6	90	0.00	30.005 
12:00	76.0	76.0	78.0	47	54.3	1	7	112	0.00	30.005 
12:05	76.1	76.1	78.0	43	52.0	2	5	90	0.00	30.006 
12:10	76.1	76.1	78.0	43	52.0	0	2	112	0.00	30.004 
12:15	76.0	76.0	78.0	44	52.5	2	9	112	0.00	30.004 
12:20	76.1	76.1	77.9	42	51.3	2	9	112	0.00	30.003 
12:25	76.3	76.3	78.1	45	53.4	1	3	112	0.00	30.004 
12:30	76.8	76.8	78.3	45	53.8	1	4	112	0.00	30.002 
12:35	77.0	77.0	78.4	44	53.4	3	6	90	0.00	30.000 
12:40	76.8	76.8	78.4	46	54.4	1	4	90	0.00	29.998 
12:45	77.0	77.0	78.4	44	53.4	1	4	112	0.00	29.999 
12:50	77.0	77.0	78.5	46	54.6	0	4	68	0.00	29.996 
12:55	77.0	77.0	78.5	47	55.2	1	5	315	0.00	29.996 
13:00	77.2	77.2	78.6	47	55.4	0	2	202	0.00	29.995 
13:05	77.6	77.6	78.7	43	53.3	1	3	135	0.00	29.998 
13:10	78.1	78.1	79.1	46	55.6	1	3	112	0.00	29.999 
13:15	78.3	78.3	79.0	42	53.3	2	5	112	0.00	29.998 
13:20	77.9	77.9	78.7	41	52.3	1	3	338	0.00	29.998 
13:25	77.9	77.9	79.0	47	56.0	2	5	90	0.00	30.001 
13:30	77.7	77.7	78.6	40	51.4	1	4	90	0.00	29.999 
13:35	77.9	77.9	78.9	45	54.8	1	5	90	0.00	30.000 
13:40	78.1	78.1	79.0	44	54.4	1	5	112	0.00	30.002 
13:45	78.1	78.1	79.2	47	56.2	0	2	90	0.00	29.997 
13:50	78.3	78.3	79.1	44	54.6	0	2	90	0.00	29.995 
13:55	78.5	78.5	79.1	41	52.8	2	5	90	0.00	29.991 
14:00	78.5	78.5	79.2	43	54.1	1	4	112	0.00	29.991 
14:05	78.5	78.5	79.3	45	55.4	2	5	112	0.00	29.991 
14:10	78.6	78.6	79.4	46	56.1	0	1	90	0.00	29.988 
14:15	78.6	78.6	79.3	44	54.8	0	2	90	0.00	29.987 
14:20	78.6	78.6	79.2	43	54.2	1	4	90	0.00	29.987 
14:25	78.8	78.8	79.5	45	55.6	1	3	90	0.00	29.988 
14:30	78.8	78.8	79.4	44	55.0	1	3	112	0.00	29.985 
14:35	78.6	78.6	79.2	42	53.6	1	4	112	0.00	29.980 
14:40	78.5	78.5	79.4	46	56.0	1	3	0	0.00	29.977 
14:45	79.2	79.2	79.9	47	57.2	1	3	68	0.00	29.977 
14:50	79.4	79.4	79.8	43	54.9	1	4	90	0.00	29.978 
14:55	79.4	79.4	79.8	43	54.9	1	4	90	0.00	29.977 
15:00	79.2	79.2	79.8	45	56.0	0	3	90	0.00	29.977 
15:05	79.6	79.6	80.0	45	56.4	0	2	90	0.00	29.978 
15:10	79.8	79.8	80.4	47	57.8	1	4	112	0.00	29.977 
15:15	79.6	79.6	79.7	40	53.1	1	6	112	0.00	29.976 
15:20	79.2	79.2	79.6	43	54.7	2	5	90	0.00	29.976 
15:25	79.0	79.0	79.4	41	53.3	1	4	90	0.00	29.975 
15:30	79.0	79.0	79.4	41	53.3	1	3	90	0.00	29.976 
15:35	78.8	78.8	79.6	47	56.8	0	3	112	0.00	29.975 
15:40	79.0	79.0	79.6	45	55.8	0	1	112	0.00	29.975 
15:45	79.4	79.4	79.7	42	54.3	1	3	112	0.00	29.975 
15:50	79.4	79.4	79.8	43	54.9	1	4	90	0.00	29.975 
15:55	79.2	79.2	79.6	43	54.7	0	1	90	0.00	29.975 
16:00	79.2	79.2	79.7	44	55.4	0	2	90	0.00	29.974 
16:05	79.2	79.2	79.6	43	54.7	2	5	90	0.00	29.973 
16:10	79.0	79.0	79.6	45	55.8	1	3	112	0.00	29.972 
16:15	79.2	79.2	79.7	44	55.4	2	4	112	0.00	29.972 
16:20	79.2	79.2	79.7	44	55.4	0	3	90	0.00	29.969 
16:25	79.0	79.0	79.4	42	53.9	1	4	112	0.00	29.969 
16:30	78.8	78.8	79.3	42	53.7	0	2	112	0.00	29.969 
16:35	78.8	78.8	79.4	44	55.0	0	1	112	0.00	29.969 
16:40	79.0	79.0	79.6	44	55.2	1	4	90	0.00	29.966 
16:45	79.2	79.2	79.5	42	54.1	1	3	90	0.00	29.965 
16:50	78.8	78.8	79.4	44	55.0	2	7	112	0.00	29.965 
16:55	78.1	78.1	79.0	44	54.4	0	1	112	0.00	29.964 
17:00	77.2	77.2	78.6	46	54.8	0	1	112	0.00	29.963 
17:05	77.2	77.2	78.6	46	54.8	0	2	112	0.00	29.961 
17:10	77.2	77.2	78.7	48	56.0	0	3	112	0.00	29.960 
17:15	77.2	77.2	78.5	45	54.2	0	3	90	0.00	29.956 
17:20	77.2	77.2	78.5	45	54.2	1	3	135	0.00	29.954 
17:25	77.4	77.4	78.7	47	55.6	0	3	112	0.00	29.950 
17:30	77.4	77.4	78.8	48	56.1	0	3	112	0.00	29.947 
17:35	77.4	77.4	78.7	46	55.0	0	3	112	0.00	29.947 
17:40	77.2	77.2	78.6	46	54.8	1	3	135	0.00	29.946 
17:45	77.2	77.2	78.6	47	55.4	1	4	112	0.00	29.947 
17:50	76.8	76.8	78.4	46	54.4	0	3	112	0.00	29.946 
17:55	76.8	76.8	78.4	46	54.4	1	3	112	0.00	29.945 
18:00	76.7	76.7	78.4	47	54.9	0	1	112	0.00	29.944 
18:05	76.7	76.7	78.4	48	55.5	1	2	112	0.00	29.940 
18:10	76.5	76.5	78.3	47	54.7	0	2	112	0.00	29.940 
18:15	76.1	76.1	78.1	47	54.4	0	1	112	0.00	29.941 
18:20	76.1	76.1	78.0	46	53.8	1	3	112	0.00	29.941 
18:25	76.0	76.0	78.0	47	54.3	1	2	90	0.00	29.942 
18:30	75.8	75.8	77.9	46	53.5	0	2	90	0.00	29.941 
18:35	75.8	75.8	77.9	47	54.1	0	3	112	0.00	29.941 
18:40	75.6	75.6	77.8	46	53.3	0	2	112	0.00	29.942 
18:45	75.6	75.6	77.9	47	53.9	0	1	112	0.00	29.946 
18:50	75.4	75.4	77.8	47	53.7	1	3	112	0.00	29.948 
18:55	75.3	75.3	77.7	46	53.1	0	2	112	0.00	29.948 
19:00	75.3	75.3	77.7	48	54.2	0	2	112	0.00	29.950 
19:05	75.1	75.1	77.7	48	54.1	0	2	112	0.00	29.945 
19:10	74.9	74.9	74.9	48	53.9	0	4	112	0.00	29.944 
19:15	74.6	74.6	74.6	48	53.6	1	3	112	0.00	29.941 
19:20	74.6	74.6	74.6	50	54.7	0	2	112	0.00	29.942 
19:25	74.4	74.4	74.4	49	54.0	0	3	112	0.00	29.944 
19:30	74.0	74.0	74.0	49	53.6	0	2	90	0.00	29.947 
19:35	73.9	73.9	73.9	51	54.6	0	0	---	0.00	29.947 
19:40	73.5	73.5	73.5	51	54.2	0	1	90	0.00	29.941 
19:45	73.2	73.2	73.2	53	55.0	0	0	---	0.00	29.941 
19:50	72.8	72.8	72.8	52	54.1	0	1	90	0.00	29.941 
19:55	72.5	72.5	72.5	53	54.4	0	0	---	0.00	29.942 
20:00	72.1	72.1	72.1	53	54.0	0	1	90	0.00	29.943 
20:05	71.8	71.8	71.8	54	54.2	0	0	---	0.00	29.942 
20:10	71.5	71.5	71.5	54	54.0	0	0	---	0.00	29.944 
20:15	70.9	70.9	70.9	54	53.4	0	0	---	0.00	29.943 
20:20	70.6	70.6	70.6	55	53.6	0	0	---	0.00	29.943 
20:25	70.3	70.3	70.3	56	53.8	0	0	---	0.00	29.945 
20:30	69.8	69.8	69.8	57	53.9	0	0	---	0.00	29.946 
20:35	69.4	69.4	69.4	57	53.5	0	0	---	0.00	29.948 
20:40	69.1	69.1	69.1	58	53.7	0	0	---	0.00	29.944 
20:45	68.8	68.8	68.8	58	53.4	0	0	---	0.00	29.945 
20:50	68.4	68.4	68.4	58	53.0	0	0	---	0.00	29.948 
20:55	68.3	68.3	68.3	59	53.4	0	0	---	0.00	29.950 
21:00	67.9	67.9	67.9	59	53.0	0	0	---	0.00	29.951 
21:05	67.6	67.6	67.6	60	53.2	0	0	---	0.00	29.948 
21:10	67.4	67.4	67.4	61	53.5	0	0	---	0.00	29.950 
21:15	67.1	67.1	67.1	59	52.3	0	0	---	0.00	29.954 
21:20	66.8	66.8	66.8	59	52.0	0	0	---	0.00	29.956 
21:25	66.6	66.6	66.6	60	52.3	0	0	---	0.00	29.957 
21:30	66.4	66.4	66.4	62	53.0	0	0	---	0.00	29.958 
21:35	66.1	66.1	66.1	62	52.7	0	0	---	0.00	29.959 
21:40	66.0	66.0	66.0	63	53.0	0	0	---	0.00	29.959 
21:45	65.6	65.6	65.6	64	53.1	0	0	---	0.00	29.959 
21:50	65.3	65.3	65.3	64	52.8	0	0	---	0.00	29.962 
21:55	65.0	65.0	65.0	66	53.4	0	1	90	0.00	29.968 
22:00	64.7	64.7	64.7	67	53.5	0	1	90	0.00	29.971 
22:05	64.5	64.5	64.5	65	52.5	0	1	90	0.00	29.967 
22:10	64.7	64.7	64.7	65	52.7	0	1	90	0.00	29.969 
22:15	64.5	64.5	64.5	64	52.0	0	0	---	0.00	29.969 
22:20	64.5	64.5	64.5	65	52.5	0	0	---	0.00	29.969 
22:25	64.2	64.2	64.2	65	52.2	0	0	---	0.00	29.971 
22:30	64.0	64.0	64.0	66	52.4	0	0	---	0.00	29.971 
22:35	63.9	63.9	63.9	67	52.7	0	0	---	0.00	29.971 
22:40	63.5	63.5	63.5	68	52.7	0	0	---	0.00	29.971 
22:45	63.2	63.2	63.2	69	52.9	0	0	---	0.00	29.968 
22:50	63.1	63.1	63.1	69	52.8	0	0	---	0.00	29.967 
22:55	62.9	62.9	62.9	69	52.6	0	0	---	0.00	29.967 
23:00	62.7	62.7	62.7	70	52.8	0	0	---	0.00	29.963 
23:05	62.6	62.6	62.6	70	52.7	0	0	---	0.00	29.961 
23:10	62.4	62.4	62.4	70	52.5	0	0	---	0.00	29.964 
23:15	62.4	62.4	62.4	70	52.5	0	0	---	0.00	29.962 
23:20	62.7	62.7	62.7	70	52.8	0	0	---	0.00	29.961 
23:25	62.7	62.7	62.7	70	52.8	0	0	---	0.00	29.963 
23:30	62.6	62.6	62.6	70	52.7	0	0	---	0.00	29.964 
23:35	62.4	62.4	62.4	71	52.9	0	0	---	0.00	29.968 
23:40	62.1	62.1	62.1	71	52.6	0	0	---	0.00	29.970 
23:45	62.0	62.0	62.0	72	52.9	0	0	---	0.00	29.970 
23:50	62.0	62.0	62.0	72	52.9	0	1	90	0.00	29.970 
23:55	62.1	62.1	62.1	72	53.0	0	1	90	0.00	29.966 

CoCoRaHS
IN-AL-39
A2 Web Hosting
Creative Commons License
GoDaddy
Look for:

loaded 2017-10-16 20:21:07 • last modified 2010-11-18 10:43:29
Privacy PolicyDisclaimer
• wx.awcolley.com is powered by PmWiki v.2002016 •
• all content (unless otherwise noted) © 2017 A W Colley